createdAt,value
2023-04-03T00:00:02.497Z,101538.35
2023-04-03T00:02:56.584Z,101541.67
2023-04-03T00:05:28.650Z,101543.88
2023-04-03T00:07:59.255Z,101542.08
2023-04-03T00:10:29.732Z,101544.48
2023-04-03T00:13:03.403Z,101543.80
2023-04-03T00:15:35.906Z,101548.13
2023-04-03T00:18:06.802Z,101547.10
2023-04-03T00:20:40.075Z,101547.23
2023-04-03T00:23:10.455Z,101548.35
2023-04-03T00:25:41.425Z,101547.75
2023-04-03T00:28:12.955Z,101547.91
2023-04-03T00:30:43.350Z,101549.74
2023-04-03T00:33:17.363Z,101550.38
2023-04-03T00:35:50.585Z,101551.86
2023-04-03T00:38:21.716Z,101554.86
2023-04-03T00:40:53.242Z,101554.54
2023-04-03T00:43:28.501Z,101553.27
2023-04-03T00:46:00.973Z,101554.52
2023-04-03T00:48:36.284Z,101555.52
2023-04-03T00:51:10.054Z,101554.45
2023-04-03T00:54:03.784Z,101556.56
2023-04-03T00:56:41.093Z,101559.11
2023-04-03T00:59:17.992Z,101558.17
2023-04-03T01:01:49.554Z,101555.57
2023-04-03T01:04:31.204Z,101557.64
2023-04-03T01:07:11.489Z,101558.26
2023-04-03T01:09:44.197Z,101556.66
2023-04-03T01:12:30.038Z,101558.52
2023-04-03T01:15:10.981Z,101562.44
2023-04-03T01:17:50.792Z,101568.06
2023-04-03T01:20:37.701Z,101574.56
2023-04-03T01:23:11.034Z,101573.49
2023-04-03T01:25:45.008Z,101573.59
2023-04-03T01:28:30.921Z,101579.39
2023-04-03T01:31:08.497Z,101581.09
2023-04-03T01:33:40.743Z,101580.80
2023-04-03T01:36:18.031Z,101583.58
2023-04-03T01:38:51.327Z,101587.51
2023-04-03T01:41:23.026Z,101586.44
2023-04-03T01:43:57.717Z,101587.09
2023-04-03T01:46:28.573Z,101589.69
2023-04-03T01:48:58.884Z,101589.47
2023-04-03T01:51:29.230Z,101588.34
2023-04-03T01:54:05.692Z,101589.23
2023-04-03T01:56:36.115Z,101592.52
2023-04-03T01:59:06.373Z,101592.70
2023-04-03T02:01:36.854Z,101593.94
2023-04-03T02:04:07.865Z,101592.80
2023-04-03T02:06:38.285Z,101593.21
2023-04-03T02:09:10.264Z,101600.09
2023-04-03T02:11:40.818Z,101602.91
2023-04-03T02:14:11.137Z,101606.20
2023-04-03T02:16:41.482Z,101603.47
2023-04-03T02:19:12.022Z,101606.32
2023-04-03T02:21:42.296Z,101605.91
2023-04-03T02:24:12.369Z,101608.41
2023-04-03T02:26:42.350Z,101607.52
2023-04-03T02:29:15.310Z,101607.05
2023-04-03T02:31:48.071Z,101611.42
2023-04-03T02:34:21.572Z,101609.31
2023-04-03T02:36:53.189Z,101614.16
2023-04-03T02:39:26.129Z,101614.10
2023-04-03T02:41:59.868Z,101620.45
2023-04-03T02:44:32.677Z,101624.64
2023-04-03T02:47:04.196Z,101625.89
2023-04-03T02:49:34.462Z,101627.79
2023-04-03T02:52:05.026Z,101627.88
2023-04-03T02:54:43.192Z,101630.09
2023-04-03T02:57:13.927Z,101629.31
2023-04-03T02:59:47.116Z,101628.98
2023-04-03T03:02:19.103Z,101632.63
2023-04-03T03:04:51.974Z,101631.70
2023-04-03T03:07:22.421Z,101629.95
2023-04-03T03:09:52.676Z,101629.12
2023-04-03T03:12:25.963Z,101626.94
2023-04-03T03:15:01.570Z,101627.38
2023-04-03T03:17:37.468Z,101630.39
2023-04-03T03:20:09.471Z,101634.44
2023-04-03T03:22:41.790Z,101636.59
2023-04-03T03:25:12.292Z,101635.48
2023-04-03T03:27:45.035Z,101633.70
2023-04-03T03:30:15.399Z,101633.20
2023-04-03T03:32:47.613Z,101634.33
2023-04-03T03:35:18.837Z,101633.96
2023-04-03T03:37:52.098Z,101634.51
2023-04-03T03:40:26.811Z,101638.48
2023-04-03T03:42:57.179Z,101643.64
2023-04-03T03:45:27.827Z,101642.05
2023-04-03T03:47:58.255Z,101644.20
2023-04-03T03:50:29.854Z,101648.23
2023-04-03T03:53:00.576Z,101651.94
2023-04-03T03:55:31.265Z,101657.42
2023-04-03T03:58:07.801Z,101658.58
2023-04-03T04:00:39.604Z,101660.38
2023-04-03T04:03:10.170Z,101664.50
2023-04-03T04:05:42.842Z,101665.20
2023-04-03T04:08:13.253Z,101666.58
2023-04-03T04:10:43.726Z,101668.48
2023-04-03T04:13:20.698Z,101665.05
2023-04-03T04:15:51.033Z,101667.45
2023-04-03T04:18:23.906Z,101665.77
2023-04-03T04:20:57.145Z,101669.23
2023-04-03T04:23:27.613Z,101672.92
2023-04-03T04:25:58.542Z,101678.65
2023-04-03T04:28:32.554Z,101678.30
2023-04-03T04:31:03.715Z,101681.77
2023-04-03T04:33:36.221Z,101685.58
2023-04-03T04:36:10.683Z,101685.38
2023-04-03T04:38:41.458Z,101685.88
2023-04-03T04:41:14.948Z,101687.07
2023-04-03T04:43:45.049Z,101686.60
2023-04-03T04:46:15.324Z,101690.34
2023-04-03T04:48:52.039Z,101694.07
2023-04-03T04:51:22.903Z,101691.95
2023-04-03T04:53:54.840Z,101697.55
2023-04-03T04:56:29.733Z,101702.34
2023-04-03T04:59:01.638Z,101705.00
2023-04-03T05:01:32.344Z,101704.95
2023-04-03T05:04:14.164Z,101710.45
2023-04-03T05:06:44.896Z,101712.55
2023-04-03T05:09:21.388Z,101709.95
2023-04-03T05:11:52.344Z,101714.60
2023-04-03T05:14:26.813Z,101716.38
2023-04-03T05:16:59.034Z,101717.11
2023-04-03T05:19:31.851Z,101713.91
2023-04-03T05:22:02.526Z,101716.36
2023-04-03T05:24:33.445Z,101718.50
2023-04-03T05:27:06.177Z,101718.67
2023-04-03T05:29:38.335Z,101719.92
2023-04-03T05:32:09.128Z,101724.00
2023-04-03T05:34:39.709Z,101723.80
2023-04-03T05:37:10.751Z,101725.50
2023-04-03T05:39:42.573Z,101725.19
2023-04-03T05:42:16.611Z,101728.21
2023-04-03T05:44:48.560Z,101728.86
2023-04-03T05:47:20.987Z,101732.77
2023-04-03T05:49:54.061Z,101735.63
2023-04-03T05:52:30.802Z,101732.96
2023-04-03T05:55:04.778Z,101737.58
2023-04-03T05:57:37.389Z,101731.85
2023-04-03T06:00:12.000Z,101729.81
2023-04-03T06:02:45.648Z,101735.82
2023-04-03T06:05:21.398Z,101734.48
2023-04-03T06:07:54.111Z,101739.67
2023-04-03T06:10:24.763Z,101739.14
2023-04-03T06:12:55.226Z,101738.66
2023-04-03T06:15:28.655Z,101743.55
2023-04-03T06:18:02.198Z,101740.52
2023-04-03T06:20:38.463Z,101738.59
2023-04-03T06:23:09.180Z,101743.06
2023-04-03T06:25:45.148Z,101743.80
2023-04-03T06:28:18.006Z,101747.60
2023-04-03T06:30:48.318Z,101748.18
2023-04-03T06:33:18.796Z,101745.70
2023-04-03T06:35:49.550Z,101750.57
2023-04-03T06:38:20.249Z,101758.59
2023-04-03T06:40:52.149Z,101762.27
2023-04-03T06:43:26.445Z,101757.34
2023-04-03T06:45:57.232Z,101762.30
2023-04-03T06:48:27.738Z,101772.57
2023-04-03T06:51:01.091Z,101772.91
2023-04-03T06:53:31.622Z,101775.35
2023-04-03T06:56:04.330Z,101773.67
2023-04-03T06:58:35.165Z,101777.42
2023-04-03T07:01:07.362Z,101775.21
2023-04-03T07:03:38.381Z,101780.32
2023-04-03T07:06:17.062Z,101777.83
2023-04-03T07:08:49.623Z,101779.20
2023-04-03T07:11:20.201Z,101776.83
2023-04-03T07:13:51.154Z,101778.27
2023-04-03T07:16:22.138Z,101783.59
2023-04-03T07:18:52.916Z,101786.95
2023-04-03T07:21:23.161Z,101786.98
2023-04-03T07:23:53.797Z,101783.14
2023-04-03T07:26:25.374Z,101786.93
2023-04-03T07:28:55.923Z,101787.80
2023-04-03T07:31:26.741Z,101788.20
2023-04-03T07:33:59.178Z,101789.11
2023-04-03T07:36:30.374Z,101789.23
2023-04-03T07:39:01.747Z,101796.25
2023-04-03T07:41:35.481Z,101799.46
2023-04-03T07:44:07.413Z,101796.77
2023-04-03T07:46:40.600Z,101801.30
2023-04-03T07:49:19.469Z,101801.92
2023-04-03T07:51:49.976Z,101797.77
2023-04-03T07:54:22.731Z,101801.73
2023-04-03T07:56:53.295Z,101808.06
2023-04-03T07:59:24.692Z,101800.64
2023-04-03T08:01:55.259Z,101804.84
2023-04-03T08:04:26.469Z,101804.09
2023-04-03T08:07:00.318Z,101805.92
2023-04-03T08:09:30.864Z,101816.95
2023-04-03T08:12:03.284Z,101808.42
2023-04-03T08:14:35.786Z,101807.09
2023-04-03T08:17:06.846Z,101808.51
2023-04-03T08:19:43.190Z,101811.36
2023-04-03T08:22:16.128Z,101802.48
2023-04-03T08:24:58.664Z,101794.90
2023-04-03T08:27:36.842Z,101807.36
2023-04-03T08:30:10.419Z,101806.99
2023-04-03T08:32:41.400Z,101805.34
2023-04-03T08:35:12.569Z,101811.87
2023-04-03T08:37:44.128Z,101813.39
2023-04-03T08:40:19.135Z,101812.19
2023-04-03T08:42:49.390Z,101806.94
2023-04-03T08:45:28.454Z,101805.67
2023-04-03T08:48:08.749Z,101812.60
2023-04-03T08:50:44.564Z,101809.01
2023-04-03T08:53:20.861Z,101808.83
2023-04-03T08:55:53.579Z,101812.66
2023-04-03T08:58:34.496Z,101812.27
2023-04-03T09:01:38.954Z,101819.99
2023-04-03T09:04:18.568Z,101817.41
2023-04-03T09:07:10.285Z,101811.73
2023-04-03T09:09:45.778Z,101812.17
2023-04-03T09:12:25.394Z,101816.79
2023-04-03T09:15:38.418Z,101815.27
2023-04-03T09:18:37.384Z,101814.60
2023-04-03T09:21:23.672Z,101818.11
2023-04-03T09:24:02.700Z,101811.01
2023-04-03T09:27:04.932Z,101813.52
2023-04-03T09:29:44.878Z,101809.52
2023-04-03T09:32:25.049Z,101814.19
2023-04-03T09:35:09.654Z,101810.25
2023-04-03T09:37:51.048Z,101812.27
2023-04-03T09:40:41.216Z,101813.42
2023-04-03T09:43:34.166Z,101805.15
2023-04-03T09:46:40.959Z,101806.36
2023-04-03T09:49:14.558Z,101806.35
2023-04-03T09:51:45.792Z,101811.39
2023-04-03T09:54:42.267Z,101814.41
2023-04-03T09:57:15.935Z,101807.83
2023-04-03T10:00:01.260Z,101815.18
2023-04-03T10:02:41.891Z,101817.23
2023-04-03T10:05:39.979Z,101814.14
2023-04-03T10:08:18.021Z,101810.46
2023-04-03T10:10:52.872Z,101810.38
2023-04-03T10:13:24.059Z,101797.14
2023-04-03T10:16:04.964Z,101784.67
2023-04-03T10:18:38.936Z,101790.41
2023-04-03T10:21:26.702Z,101790.52
2023-04-03T10:24:12.692Z,101787.36
2023-04-03T10:26:58.535Z,101783.55
2023-04-03T10:30:14.231Z,101785.74
2023-04-03T10:33:00.166Z,101789.56
2023-04-03T10:35:36.551Z,101786.91
2023-04-03T10:38:24.166Z,101778.11
2023-04-03T10:41:16.419Z,101757.79
2023-04-03T10:44:07.146Z,101773.67
2023-04-03T10:47:05.459Z,101773.80
2023-04-03T10:49:53.488Z,101764.83
2023-04-03T10:52:30.076Z,101770.95
2023-04-03T10:55:43.580Z,101764.33
2023-04-03T10:58:43.831Z,101766.48
2023-04-03T11:01:24.490Z,101759.71
2023-04-03T11:03:58.893Z,101756.25
2023-04-03T11:06:41.186Z,101757.37
2023-04-03T11:09:43.148Z,101753.66
2023-04-03T11:12:48.103Z,101753.42
2023-04-03T11:15:22.244Z,101754.18
2023-04-03T11:18:07.342Z,101755.02
2023-04-03T11:20:41.385Z,101763.38
2023-04-03T11:23:48.969Z,101754.20
2023-04-03T11:26:23.578Z,101742.45
2023-04-03T11:29:02.703Z,101753.69
2023-04-03T11:31:59.624Z,101748.23
2023-04-03T11:34:46.638Z,101742.91
2023-04-03T11:37:22.189Z,101735.84
2023-04-03T11:40:08.683Z,101736.13
2023-04-03T11:42:45.225Z,101738.95
2023-04-03T11:45:29.314Z,101744.44
2023-04-03T11:48:20.838Z,101751.27
2023-04-03T11:50:58.340Z,101741.19
2023-04-03T11:53:41.885Z,101730.27
2023-04-03T11:56:29.736Z,101725.37
2023-04-03T11:59:13.572Z,101719.09
2023-04-03T12:01:51.411Z,101715.02
2023-04-03T12:04:27.152Z,101710.67
2023-04-03T12:07:14.958Z,101711.52
2023-04-03T12:09:45.739Z,101717.26
2023-04-03T12:12:36.818Z,101712.40
2023-04-03T12:15:45.525Z,101721.63
2023-04-03T12:18:47.301Z,101717.95
2023-04-03T12:21:34.933Z,101714.59
2023-04-03T12:24:12.074Z,101715.23
2023-04-03T12:27:01.629Z,101712.80
2023-04-03T12:29:35.231Z,101718.80
2023-04-03T12:32:35.786Z,101715.81
2023-04-03T12:35:31.467Z,101713.84
2023-04-03T12:38:39.925Z,101708.02
2023-04-03T12:41:41.279Z,101703.35
2023-04-03T12:44:29.150Z,101700.55
2023-04-03T12:47:12.050Z,101700.44
2023-04-03T12:49:51.465Z,101696.02
2023-04-03T12:52:35.546Z,101694.02
2023-04-03T12:55:11.555Z,101704.30
2023-04-03T12:57:47.554Z,101698.23
2023-04-03T13:00:24.573Z,101698.10
2023-04-03T13:02:55.209Z,101704.92
2023-04-03T13:05:30.240Z,101701.86
2023-04-03T13:08:12.818Z,101697.45
2023-04-03T13:10:54.764Z,101687.95
2023-04-03T13:13:29.454Z,101688.71
2023-04-03T13:16:01.086Z,101699.23
2023-04-03T13:18:37.286Z,101697.16
2023-04-03T13:21:21.096Z,101694.83
2023-04-03T13:24:00.569Z,101692.16
2023-04-03T13:26:35.829Z,101685.10
2023-04-03T13:29:20.690Z,101689.95
2023-04-03T13:32:01.796Z,101693.18
2023-04-03T13:34:41.010Z,101701.37
2023-04-03T13:37:33.575Z,101696.32
2023-04-03T13:40:03.992Z,101687.74
2023-04-03T13:42:42.088Z,101688.88
2023-04-03T13:45:22.076Z,101698.65
2023-04-03T13:47:56.165Z,101698.73
2023-04-03T13:50:30.382Z,101695.70
2023-04-03T13:53:18.524Z,101691.58
2023-04-03T13:56:00.133Z,101703.11
2023-04-03T13:58:34.283Z,101703.19
2023-04-03T14:01:10.849Z,101706.98
2023-04-03T14:03:47.041Z,101702.57
2023-04-03T14:06:21.372Z,101696.50
2023-04-03T14:08:58.933Z,101701.31
2023-04-03T14:11:37.110Z,101697.14
2023-04-03T14:14:24.335Z,101691.76
2023-04-03T14:17:00.106Z,101702.06
2023-04-03T14:19:36.779Z,101695.15
2023-04-03T14:22:21.966Z,101696.63
2023-04-03T14:24:53.372Z,101694.48
2023-04-03T14:27:31.176Z,101693.96
2023-04-03T14:30:04.516Z,101694.49
2023-04-03T14:32:36.321Z,101698.85
2023-04-03T14:35:09.268Z,101700.61
2023-04-03T14:37:39.851Z,101696.71
2023-04-03T14:40:11.992Z,101697.29
2023-04-03T14:42:42.423Z,101692.52
2023-04-03T14:45:19.773Z,101700.05
2023-04-03T14:47:58.584Z,101699.27
2023-04-03T14:50:29.950Z,101704.31
2023-04-03T14:53:01.910Z,101708.88
2023-04-03T14:55:33.359Z,101705.47
2023-04-03T14:58:04.954Z,101699.35
2023-04-03T15:00:37.343Z,101704.30
2023-04-03T15:03:17.621Z,101703.77
2023-04-03T15:05:52.445Z,101701.95
2023-04-03T15:08:28.550Z,101697.23
2023-04-03T15:10:59.587Z,101703.86
2023-04-03T15:13:33.581Z,101700.42
2023-04-03T15:16:04.999Z,101697.14
2023-04-03T15:18:44.595Z,101701.69
2023-04-03T15:21:17.175Z,101704.71
2023-04-03T15:23:49.358Z,101710.59
2023-04-03T15:26:21.151Z,101703.86
2023-04-03T15:28:55.096Z,101710.41
2023-04-03T15:31:27.839Z,101704.15
2023-04-03T15:33:58.485Z,101705.90
2023-04-03T15:36:34.164Z,101707.27
2023-04-03T15:39:07.574Z,101712.27
2023-04-03T15:41:40.608Z,101708.09
2023-04-03T15:50:59.178Z,101717.71
2023-04-03T15:53:32.098Z,101717.02
2023-04-03T15:56:03.905Z,101721.41
2023-04-03T15:58:34.483Z,101723.27
2023-04-03T16:01:05.155Z,101721.88
2023-04-03T16:03:45.257Z,101719.88
2023-04-03T16:06:20.251Z,101720.98
2023-04-03T16:08:53.817Z,101724.91
2023-04-03T16:11:24.054Z,101723.08
2023-04-03T16:13:55.799Z,101723.89
2023-04-03T16:16:28.661Z,101726.60
2023-04-03T16:19:00.925Z,101727.28
2023-04-03T16:21:32.150Z,101728.10
2023-04-03T16:24:04.113Z,101731.52
2023-04-03T16:26:34.859Z,101732.89
2023-04-03T16:29:05.401Z,101738.66
2023-04-03T16:31:36.488Z,101741.32
2023-04-03T16:34:06.946Z,101738.26
2023-04-03T16:36:38.867Z,101737.52
2023-04-03T16:39:11.094Z,101739.66
2023-04-03T16:41:42.204Z,101738.38
2023-04-03T16:44:13.276Z,101733.72
2023-04-03T16:46:45.708Z,101735.23
2023-04-03T16:49:17.030Z,101736.73
2023-04-03T16:51:49.976Z,101741.83
2023-04-03T16:54:21.482Z,101748.05
2023-04-03T16:56:52.961Z,101747.98
2023-04-03T16:59:27.993Z,101745.98
2023-04-03T17:01:59.216Z,101742.92
2023-04-03T17:04:33.376Z,101745.23
2023-04-03T17:07:08.861Z,101745.80
2023-04-03T17:09:43.944Z,101745.39
2023-04-03T17:12:23.863Z,101743.42
2023-04-03T17:14:55.052Z,101746.92
2023-04-03T17:17:35.749Z,101751.38
2023-04-03T17:20:07.456Z,101751.89
2023-04-03T17:22:38.772Z,101758.78
2023-04-03T17:25:10.552Z,101760.07
2023-04-03T17:27:43.346Z,101761.70
2023-04-03T17:30:21.555Z,101760.16
2023-04-03T17:32:53.595Z,101757.39
2023-04-03T17:35:28.509Z,101762.40
2023-04-03T17:38:03.224Z,101757.52
2023-04-03T17:40:34.939Z,101762.00
2023-04-03T17:43:08.362Z,101768.99
2023-04-03T17:45:39.903Z,101768.20
2023-04-03T17:48:11.511Z,101770.58
2023-04-03T17:50:44.737Z,101772.08
2023-04-03T17:53:20.711Z,101773.98
2023-04-03T17:56:00.078Z,101775.00
2023-04-03T17:58:38.387Z,101772.91
2023-04-03T18:01:21.600Z,101774.38
2023-04-03T18:03:56.936Z,101774.46
2023-04-03T18:06:34.717Z,101769.40
2023-04-03T18:09:08.595Z,101768.30
2023-04-03T18:11:41.073Z,101767.39
2023-04-03T18:14:12.869Z,101767.24
2023-04-03T18:16:45.370Z,101765.20
2023-04-03T18:19:23.744Z,101764.27
2023-04-03T18:21:59.381Z,101767.76
2023-04-03T18:24:37.324Z,101769.30
2023-04-03T18:27:17.462Z,101768.36
2023-04-03T18:29:58.752Z,101772.38
2023-04-03T18:32:31.082Z,101772.10
2023-04-03T18:35:07.485Z,101771.59
2023-04-03T18:37:44.558Z,101771.64
2023-04-03T18:40:18.585Z,101767.93
2023-04-03T18:42:54.001Z,101765.48
2023-04-03T18:45:45.111Z,101770.88
2023-04-03T18:48:26.071Z,101774.85
2023-04-03T18:51:01.395Z,101773.25
2023-04-03T18:53:36.863Z,101774.69
2023-04-03T18:56:17.873Z,101770.70
2023-04-03T18:58:57.480Z,101771.95
2023-04-03T19:01:37.860Z,101775.54
2023-04-03T19:04:10.813Z,101772.06
2023-04-03T19:06:46.024Z,101775.05
2023-04-03T19:09:27.157Z,101771.31
2023-04-03T19:12:06.310Z,101770.52
